Time;durP1;ratioP1;P1;durP2;ratioP2;P2;SDS_P1;SDS_P2;PMS_P1;PMS_P2;Temp;Humidity;BMP_temperature;BMP_pressure;BME280_temperature;BME280_humidity;BME280_pressure;Samples;Min_cycle;Max_cycle;Signal;HPM_P1;HPM_P2
2022/03/31 00:00:16;;;;;;;4.30;0.93;;;5.10;85.80;;;;;;5043684;28;20077;-61
2022/03/31 00:02:42;;;;;;;4.30;1.20;;;5.00;86.30;;;;;;5029128;28;20071;-61
2022/03/31 00:05:08;;;;;;;6.20;1.58;;;4.90;87.10;;;;;;5048164;28;20040;-62
2022/03/31 00:07:34;;;;;;;2.55;0.70;;;4.90;87.90;;;;;;5024801;28;20549;-63
2022/03/31 00:10:00;;;;;;;4.82;1.17;;;4.80;87.80;;;;;;5042187;28;20135;-61
2022/03/31 00:12:26;;;;;;;4.20;0.80;;;4.80;88.00;;;;;;5051779;28;20679;-62
2022/03/31 00:14:52;;;;;;;3.80;1.30;;;4.70;88.30;;;;;;5019472;28;20029;-62
2022/03/31 00:17:18;;;;;;;2.72;0.75;;;4.60;88.80;;;;;;5029317;28;20496;-62
2022/03/31 00:19:44;;;;;;;3.65;1.02;;;4.60;89.50;;;;;;5014684;28;20051;-61
2022/03/31 00:22:10;;;;;;;6.30;0.93;;;4.60;89.90;;;;;;5012461;28;20510;-62
2022/03/31 00:24:36;;;;;;;7.40;2.08;;;4.60;90.10;;;;;;5030800;28;20048;-61
2022/03/31 00:27:01;;;;;;;5.75;1.10;;;4.60;90.40;;;;;;5022678;28;20071;-62
2022/03/31 00:29:27;;;;;;;9.65;1.42;;;4.50;90.60;;;;;;5010898;28;20044;-61
2022/03/31 00:31:54;;;;;;;3.50;1.10;;;4.50;90.60;;;;;;5012065;28;20047;-61
2022/03/31 00:34:20;;;;;;;4.65;1.00;;;4.60;90.70;;;;;;5031668;28;20041;-61
2022/03/31 00:40:27;;;;;;;4.25;1.17;;;4.50;90.80;;;;;;5050491;28;20024;-62
2022/03/31 00:42:55;;;;;;;9.35;2.00;;;4.60;91.10;;;;;;5024994;28;20049;-61
2022/03/31 00:45:34;;;;;;;2.85;0.90;;;4.60;91.00;;;;;;5029084;28;20044;-61
2022/03/31 00:48:00;;;;;;;4.68;1.42;;;4.60;91.00;;;;;;5014047;28;20086;-61
2022/03/31 00:50:27;;;;;;;7.68;1.63;;;4.70;91.10;;;;;;5012369;28;20086;-61
2022/03/31 00:52:53;;;;;;;5.47;1.20;;;4.70;91.00;;;;;;5033250;28;20616;-61
2022/03/31 00:55:20;;;;;;;4.50;1.17;;;4.70;91.00;;;;;;5029872;28;20040;-61
2022/03/31 00:57:47;;;;;;;3.13;1.30;;;4.70;91.10;;;;;;5036343;28;20040;-62
2022/03/31 01:00:17;;;;;;;3.65;1.20;;;4.70;91.10;;;;;;5030176;28;20763;-61
2022/03/31 01:02:44;;;;;;;4.10;1.00;;;4.70;91.20;;;;;;5030020;28;20307;-62
2022/03/31 01:05:11;;;;;;;4.57;1.13;;;4.70;91.30;;;;;;4992438;28;20136;-61
2022/03/31 01:07:38;;;;;;;7.20;1.20;;;4.70;91.30;;;;;;5026577;28;20396;-61
2022/03/31 01:10:05;;;;;;;3.90;1.00;;;4.70;91.30;;;;;;5013612;28;20044;-62
2022/03/31 01:12:32;;;;;;;6.30;1.63;;;4.70;91.40;;;;;;5038416;28;20048;-61
2022/03/31 01:15:07;;;;;;;4.45;1.20;;;4.70;91.50;;;;;;4993199;28;20109;-62
2022/03/31 01:17:38;;;;;;;4.13;1.30;;;4.60;91.50;;;;;;5012070;28;20040;-62
2022/03/31 01:20:07;;;;;;;6.35;1.08;;;4.60;91.70;;;;;;5029653;28;20048;-62
2022/03/31 01:22:33;;;;;;;7.15;1.52;;;4.60;91.80;;;;;;4999408;28;21947;-61
2022/03/31 01:25:01;;;;;;;5.43;1.45;;;4.60;91.90;;;;;;5028920;28;20032;-61
2022/03/31 01:27:26;;;;;;;4.75;1.33;;;4.60;92.00;;;;;;5014826;28;20049;-62
2022/03/31 01:29:53;;;;;;;9.73;1.23;;;4.50;92.40;;;;;;5012282;28;20500;-61
2022/03/31 01:32:19;;;;;;;3.65;1.20;;;4.50;92.20;;;;;;5011880;28;21268;-61
2022/03/31 01:34:46;;;;;;;5.05;1.38;;;4.50;92.40;;;;;;5039201;28;20056;-61
2022/03/31 01:37:13;;;;;;;7.32;1.90;;;4.60;92.60;;;;;;5029240;28;20079;-62
2022/03/31 01:39:39;;;;;;;7.55;1.30;;;4.60;92.70;;;;;;5027433;28;20044;-61
2022/03/31 01:42:05;;;;;;;7.30;1.83;;;4.60;92.70;;;;;;5012151;28;20512;-60
2022/03/31 01:44:32;;;;;;;6.30;1.45;;;4.60;92.70;;;;;;5032480;28;20099;-61
2022/03/31 01:46:57;;;;;;;2.78;1.10;;;4.60;92.70;;;;;;5006387;28;20068;-62
2022/03/31 01:49:23;;;;;;;6.78;1.58;;;4.60;92.90;;;;;;5007635;28;20678;-61
2022/03/31 01:51:49;;;;;;;7.93;1.20;;;4.60;93.00;;;;;;5036298;28;20036;-62
2022/03/31 01:54:15;;;;;;;5.55;1.55;;;4.60;93.10;;;;;;5036925;28;20106;-63
2022/03/31 01:56:41;;;;;;;5.15;1.60;;;4.70;93.30;;;;;;5028025;28;20076;-61
2022/03/31 01:59:07;;;;;;;6.78;1.30;;;4.70;93.30;;;;;;5031191;28;20102;-62
2022/03/31 02:01:33;;;;;;;5.80;1.35;;;4.70;93.40;;;;;;5043725;28;20385;-62
2022/03/31 02:03:59;;;;;;;6.32;1.45;;;4.70;93.50;;;;;;5051219;28;20095;-62
2022/03/31 02:06:24;;;;;;;5.88;1.60;;;4.60;93.40;;;;;;5025497;28;22925;-61
2022/03/31 02:08:50;;;;;;;3.38;1.50;;;4.60;93.50;;;;;;5045793;28;20036;-62
2022/03/31 02:14:56;;;;;;;4.70;1.42;;;4.60;93.70;;;;;;5046071;28;20082;-61
2022/03/31 02:17:22;;;;;;;6.60;1.40;;;4.60;94.00;;;;;;5047103;28;20037;-62
2022/03/31 02:19:48;;;;;;;5.68;1.45;;;4.60;94.20;;;;;;5054586;28;20052;-61
2022/03/31 02:22:14;;;;;;;3.67;1.30;;;4.60;94.40;;;;;;5037393;28;20177;-62
2022/03/31 02:24:39;;;;;;;6.38;1.48;;;4.70;94.50;;;;;;5035391;28;20139;-61
2022/03/31 02:27:05;;;;;;;7.32;1.52;;;4.60;94.50;;;;;;5019643;28;20585;-62
2022/03/31 02:29:31;;;;;;;3.47;1.10;;;4.60;94.50;;;;;;5063234;28;20041;-62
2022/03/31 02:31:57;;;;;;;8.48;1.90;;;4.50;94.50;;;;;;5056397;28;20104;-61
2022/03/31 02:34:22;;;;;;;5.75;1.30;;;4.60;94.40;;;;;;5038176;28;20061;-61
2022/03/31 02:36:48;;;;;;;9.27;2.50;;;4.60;94.50;;;;;;5030389;28;20052;-61
2022/03/31 02:39:14;;;;;;;5.25;1.70;;;4.60;94.40;;;;;;5053790;28;20047;-61
2022/03/31 02:41:40;;;;;;;5.07;1.77;;;4.60;94.30;;;;;;5062622;28;20036;-61
2022/03/31 02:44:07;;;;;;;3.85;1.73;;;4.60;94.30;;;;;;5034620;28;20063;-61
2022/03/31 02:46:33;;;;;;;6.30;1.65;;;4.60;94.30;;;;;;5050995;28;20586;-62
2022/03/31 02:48:59;;;;;;;5.15;1.73;;;4.60;94.30;;;;;;5042263;28;20048;-62
2022/03/31 02:51:25;;;;;;;7.80;1.88;;;4.70;94.40;;;;;;5039961;28;20183;-61
2022/03/31 02:56:37;;;;;;;4.93;1.63;;;4.70;94.40;;;;;;5027429;28;20764;-61
2022/03/31 02:59:09;;;;;;;4.85;1.65;;;4.60;94.50;;;;;;5030252;28;20497;-61
2022/03/31 03:01:35;;;;;;;3.58;1.55;;;4.60;94.80;;;;;;5015097;28;21458;-61
2022/03/31 03:04:02;;;;;;;3.15;1.35;;;4.50;95.10;;;;;;5034057;22;20492;-61
2022/03/31 03:06:28;;;;;;;6.75;1.83;;;4.50;95.30;;;;;;5024351;28;20045;-60
2022/03/31 03:08:55;;;;;;;3.17;1.35;;;4.50;95.40;;;;;;5030003;28;20044;-60
2022/03/31 03:11:21;;;;;;;6.45;1.55;;;4.50;95.70;;;;;;5030307;28;20049;-60
2022/03/31 03:13:47;;;;;;;4.88;1.88;;;4.50;96.10;;;;;;5000992;28;20185;-60
2022/03/31 03:16:13;;;;;;;9.57;2.45;;;4.50;96.40;;;;;;5029657;28;20741;-60
2022/03/31 03:18:39;;;;;;;3.63;1.80;;;4.50;96.70;;;;;;5023163;28;20419;-61
2022/03/31 03:21:07;;;;;;;5.55;2.40;;;4.50;96.90;;;;;;5024889;28;20055;-62
2022/03/31 03:23:37;;;;;;;8.68;3.75;;;4.50;97.30;;;;;;5028644;28;20721;-60
2022/03/31 03:26:03;;;;;;;5.03;2.92;;;4.50;98.10;;;;;;5035970;28;20105;-62
2022/03/31 03:28:30;;;;;;;6.65;3.08;;;4.40;98.40;;;;;;5043169;28;20301;-61
2022/03/31 03:30:57;;;;;;;7.03;3.88;;;4.40;99.20;;;;;;5041023;28;20135;-62
2022/03/31 03:33:23;;;;;;;6.97;4.10;;;4.30;99.90;;;;;;5046914;28;20466;-60
2022/03/31 03:35:49;;;;;;;6.60;3.78;;;4.30;99.90;;;;;;5038265;28;20052;-61
2022/03/31 03:38:15;;;;;;;7.00;4.45;;;4.30;99.90;;;;;;5041634;28;20645;-62
2022/03/31 03:40:42;;;;;;;7.65;4.30;;;4.30;99.90;;;;;;5038753;28;20048;-60
2022/03/31 03:43:09;;;;;;;6.57;3.63;;;4.30;99.90;;;;;;5045861;28;20052;-61
2022/03/31 03:45:36;;;;;;;5.30;3.67;;;4.30;99.90;;;;;;5041581;28;20064;-62
2022/03/31 03:48:03;;;;;;;7.03;3.83;;;4.30;99.90;;;;;;5042625;28;20049;-61
2022/03/31 03:50:29;;;;;;;7.43;3.78;;;4.30;99.90;;;;;;5041695;28;20168;-61
2022/03/31 03:52:55;;;;;;;6.07;3.17;;;4.30;99.90;;;;;;5039800;28;20048;-62
2022/03/31 03:55:21;;;;;;;4.20;2.58;;;4.20;99.90;;;;;;5040334;28;20032;-61
2022/03/31 03:57:47;;;;;;;3.55;2.10;;;4.20;99.90;;;;;;5043638;28;20564;-61
2022/03/31 04:00:13;;;;;;;4.22;2.35;;;4.20;99.90;;;;;;5037643;28;20127;-61
2022/03/31 04:02:39;;;;;;;4.78;2.58;;;4.20;99.90;;;;;;5040583;28;20049;-62
2022/03/31 04:05:06;;;;;;;3.85;2.25;;;4.10;99.90;;;;;;5048405;28;20109;-61
2022/03/31 04:07:31;;;;;;;5.05;2.97;;;4.10;99.90;;;;;;5036214;28;20036;-61
2022/03/31 04:09:57;;;;;;;4.22;2.70;;;4.10;99.90;;;;;;5049533;28;20059;-61
2022/03/31 04:12:23;;;;;;;4.25;3.03;;;4.10;99.90;;;;;;5033184;28;20466;-62
2022/03/31 04:14:49;;;;;;;3.97;2.58;;;4.10;99.90;;;;;;5043081;28;20045;-62
2022/03/31 04:17:16;;;;;;;4.32;2.78;;;4.10;99.90;;;;;;5041782;28;20120;-61
2022/03/31 04:19:43;;;;;;;3.75;2.75;;;4.10;99.90;;;;;;5058156;28;20500;-62
2022/03/31 04:22:09;;;;;;;5.30;2.72;;;4.20;99.90;;;;;;5061782;28;20044;-61
2022/03/31 04:24:36;;;;;;;3.55;2.70;;;4.10;99.90;;;;;;5028532;28;20131;-61
2022/03/31 04:27:01;;;;;;;8.00;3.47;;;4.10;99.90;;;;;;5036037;28;20131;-61
2022/03/31 04:29:27;;;;;;;4.38;3.20;;;4.10;99.90;;;;;;5035322;28;20401;-61
2022/03/31 04:31:53;;;;;;;5.07;4.00;;;4.10;99.90;;;;;;5047588;28;20907;-62
2022/03/31 04:34:20;;;;;;;5.35;3.78;;;4.10;99.90;;;;;;5045364;28;20594;-60
2022/03/31 04:36:49;;;;;;;4.20;3.60;;;4.00;99.90;;;;;;5051673;28;20040;-62
2022/03/31 04:39:15;;;;;;;6.55;4.55;;;4.00;99.90;;;;;;5044713;28;20127;-61
2022/03/31 04:41:42;;;;;;;6.65;3.92;;;3.90;99.90;;;;;;5059243;28;20037;-60
2022/03/31 04:44:08;;;;;;;6.53;4.25;;;3.90;99.90;;;;;;5051434;28;20520;-60
2022/03/31 04:46:35;;;;;;;3.72;2.95;;;3.90;99.90;;;;;;5058501;28;20029;-62
2022/03/31 04:49:01;;;;;;;6.22;3.20;;;3.90;99.90;;;;;;5051572;28;20047;-61
2022/03/31 04:51:27;;;;;;;4.28;2.53;;;3.90;99.90;;;;;;5037594;28;20202;-61
2022/03/31 04:53:54;;;;;;;3.78;2.95;;;3.80;99.90;;;;;;5054277;28;20527;-61
2022/03/31 04:56:20;;;;;;;3.63;2.45;;;3.70;99.90;;;;;;5057617;28;20024;-60
2022/03/31 04:58:46;;;;;;;4.05;3.20;;;3.70;99.90;;;;;;5047935;28;20041;-60
2022/03/31 05:01:12;;;;;;;3.80;2.45;;;3.70;99.90;;;;;;5048440;28;21067;-60
2022/03/31 05:03:39;;;;;;;2.90;2.38;;;3.60;99.90;;;;;;5050066;28;20037;-60
2022/03/31 05:06:06;;;;;;;3.30;2.45;;;3.60;99.90;;;;;;5046213;28;20070;-60
2022/03/31 05:08:32;;;;;;;6.57;3.00;;;3.60;99.90;;;;;;5045770;28;20569;-61
2022/03/31 05:10:58;;;;;;;4.65;2.80;;;3.60;99.90;;;;;;5041345;28;21604;-60
2022/03/31 05:13:24;;;;;;;4.75;2.97;;;3.50;99.90;;;;;;5058677;28;20417;-62
2022/03/31 05:15:50;;;;;;;5.47;2.97;;;3.50;99.90;;;;;;5065798;28;20032;-61
2022/03/31 05:18:16;;;;;;;6.10;2.80;;;3.50;99.90;;;;;;5056958;28;20041;-62
2022/03/31 05:20:43;;;;;;;4.43;2.95;;;3.40;99.90;;;;;;5042918;28;20082;-62
2022/03/31 05:23:12;;;;;;;4.82;3.30;;;3.40;99.90;;;;;;5029385;28;20040;-61
2022/03/31 05:25:39;;;;;;;3.80;2.85;;;3.40;99.90;;;;;;5064003;28;20033;-61
2022/03/31 05:28:05;;;;;;;4.55;2.60;;;3.40;99.90;;;;;;5031249;28;20531;-61
2022/03/31 05:30:31;;;;;;;3.53;2.55;;;3.40;99.90;;;;;;5034938;28;20488;-61
2022/03/31 05:32:59;;;;;;;4.70;3.63;;;3.40;99.90;;;;;;5046843;28;20609;-61
2022/03/31 05:35:27;;;;;;;4.85;2.95;;;3.40;99.90;;;;;;5029009;28;20037;-62
2022/03/31 05:37:54;;;;;;;3.22;2.63;;;3.40;99.90;;;;;;5037316;28;20067;-62
2022/03/31 05:40:20;;;;;;;8.13;3.42;;;3.50;99.90;;;;;;5042489;28;20445;-62
2022/03/31 05:42:46;;;;;;;5.72;2.90;;;3.50;99.90;;;;;;5048669;28;20037;-61
2022/03/31 05:45:12;;;;;;;5.15;3.10;;;3.60;99.90;;;;;;5049615;28;20033;-61
2022/03/31 05:47:40;;;;;;;6.72;3.72;;;3.50;99.90;;;;;;5029139;28;20052;-61
2022/03/31 05:50:08;;;;;;;4.90;3.05;;;3.60;99.90;;;;;;5047532;28;20401;-60
2022/03/31 05:52:42;;;;;;;4.07;2.92;;;3.60;99.90;;;;;;5045541;28;20031;-61
2022/03/31 05:55:14;;;;;;;4.95;2.75;;;3.60;99.90;;;;;;5057203;28;20045;-61
2022/03/31 05:57:40;;;;;;;5.82;3.38;;;3.60;99.90;;;;;;5059742;28;20541;-62
2022/03/31 06:00:11;;;;;;;5.97;3.13;;;3.70;99.90;;;;;;5057459;28;20033;-61
2022/03/31 06:02:38;;;;;;;5.07;2.80;;;3.70;99.90;;;;;;5050631;28;20591;-61
2022/03/31 06:05:05;;;;;;;6.88;2.90;;;3.70;99.90;;;;;;5042837;28;20452;-62
2022/03/31 06:07:30;;;;;;;5.43;3.38;;;3.70;99.90;;;;;;5046881;28;20567;-61
2022/03/31 06:09:56;;;;;;;7.50;3.10;;;3.70;99.90;;;;;;5041954;28;20045;-61
2022/03/31 06:12:22;;;;;;;10.50;4.55;;;3.70;99.90;;;;;;5047601;28;20055;-62
2022/03/31 06:14:48;;;;;;;6.13;3.83;;;3.80;99.90;;;;;;5051762;28;20044;-61
2022/03/31 06:17:14;;;;;;;4.45;2.80;;;3.70;99.90;;;;;;5026551;28;20044;-61
2022/03/31 06:19:39;;;;;;;7.07;3.60;;;3.70;99.90;;;;;;5012442;28;20128;-62
2022/03/31 06:22:05;;;;;;;4.72;3.50;;;3.70;99.90;;;;;;5020784;28;20036;-61
2022/03/31 06:24:31;;;;;;;5.60;3.33;;;3.70;99.90;;;;;;5022541;28;20135;-61
2022/03/31 06:26:57;;;;;;;6.30;3.90;;;3.80;99.90;;;;;;5042081;28;20507;-60
2022/03/31 06:29:25;;;;;;;5.22;3.95;;;3.80;99.90;;;;;;5047710;28;20043;-60
2022/03/31 06:31:53;;;;;;;4.45;3.42;;;3.80;99.90;;;;;;5048578;28;20037;-61
2022/03/31 06:34:19;;;;;;;5.75;3.90;;;3.80;99.90;;;;;;5036594;28;20456;-61
2022/03/31 06:36:45;;;;;;;4.43;3.05;;;3.80;99.90;;;;;;5049621;28;20321;-61
2022/03/31 06:39:11;;;;;;;4.60;3.55;;;3.80;99.90;;;;;;5043345;28;20050;-62
2022/03/31 06:41:37;;;;;;;6.03;3.83;;;3.80;99.90;;;;;;5038833;28;20059;-61
2022/03/31 06:44:03;;;;;;;4.85;3.60;;;3.80;99.90;;;;;;5026801;28;20067;-62
2022/03/31 06:46:29;;;;;;;3.85;3.15;;;3.80;99.90;;;;;;5036619;28;20506;-62
2022/03/31 06:48:55;;;;;;;5.45;4.18;;;3.80;99.90;;;;;;5043471;28;20044;-63
2022/03/31 06:51:21;;;;;;;4.47;3.92;;;3.90;99.90;;;;;;5037185;28;20610;-60
2022/03/31 06:53:46;;;;;;;4.72;3.70;;;3.90;99.90;;;;;;5037942;28;20037;-62
2022/03/31 06:56:16;;;;;;;3.78;3.20;;;3.90;99.90;;;;;;5056009;28;20259;-63
2022/03/31 06:58:42;;;;;;;4.43;3.80;;;3.90;99.90;;;;;;5036291;28;20033;-62
2022/03/31 07:01:07;;;;;;;4.15;3.60;;;3.90;99.90;;;;;;5039502;28;20500;-62
2022/03/31 07:03:34;;;;;;;4.22;3.63;;;3.90;99.90;;;;;;5017023;28;20135;-62
2022/03/31 07:05:59;;;;;;;4.25;3.38;;;4.00;99.90;;;;;;5029690;28;20159;-62
2022/03/31 07:08:25;;;;;;;5.22;4.30;;;4.00;99.90;;;;;;5046516;28;20545;-64
2022/03/31 07:10:51;;;;;;;3.90;3.45;;;4.00;99.90;;;;;;5019636;28;20047;-64
2022/03/31 07:13:17;;;;;;;4.10;3.60;;;4.00;99.90;;;;;;5030002;28;20128;-61
2022/03/31 07:15:43;;;;;;;4.97;4.15;;;4.00;99.90;;;;;;5041402;28;20435;-63
2022/03/31 07:18:09;;;;;;;4.65;3.90;;;4.10;99.90;;;;;;5005581;28;20149;-61
2022/03/31 07:20:36;;;;;;;5.15;4.13;;;4.10;99.90;;;;;;5013040;28;20695;-62
2022/03/31 07:23:02;;;;;;;4.80;4.00;;;4.10;99.90;;;;;;5031084;28;20033;-62
2022/03/31 07:25:28;;;;;;;4.72;4.22;;;4.10;99.90;;;;;;5040814;28;20041;-64
2022/03/31 07:27:55;;;;;;;5.70;4.68;;;4.10;99.90;;;;;;5005287;28;20149;-62
2022/03/31 07:30:22;;;;;;;4.35;3.83;;;4.10;99.90;;;;;;5036962;28;20129;-62
2022/03/31 07:32:56;;;;;;;5.25;4.60;;;4.10;99.90;;;;;;5040306;28;20094;-62
2022/03/31 07:35:24;;;;;;;5.07;4.57;;;4.10;99.90;;;;;;5033322;28;20056;-62
2022/03/31 07:37:51;;;;;;;6.47;4.72;;;4.00;99.90;;;;;;5020085;28;20048;-65
2022/03/31 07:40:18;;;;;;;5.30;4.35;;;4.00;99.90;;;;;;5036796;28;20037;-62
2022/03/31 07:42:44;;;;;;;5.15;4.63;;;4.10;99.90;;;;;;5037541;28;20037;-62
2022/03/31 07:45:11;;;;;;;5.68;4.55;;;4.00;99.90;;;;;;5040168;28;20169;-61
2022/03/31 07:47:38;;;;;;;6.80;5.85;;;4.20;99.90;;;;;;5031967;28;20032;-62
2022/03/31 07:50:07;;;;;;;9.30;7.80;;;4.20;99.90;;;;;;5034786;28;20048;-63
2022/03/31 07:52:34;;;;;;;10.40;7.72;;;4.20;99.90;;;;;;5027066;28;20105;-65
2022/03/31 07:54:59;;;;;;;9.73;7.97;;;4.20;99.90;;;;;;5041014;28;20036;-61
2022/03/31 07:57:25;;;;;;;9.90;8.18;;;4.20;99.90;;;;;;5025734;28;20552;-62
2022/03/31 07:59:51;;;;;;;7.68;5.80;;;4.20;99.90;;;;;;5036214;28;20119;-62
2022/03/31 08:02:16;;;;;;;7.20;5.82;;;4.10;99.90;;;;;;5042253;28;20036;-62
2022/03/31 08:04:42;;;;;;;6.13;5.43;;;4.10;99.90;;;;;;5050033;28;20222;-63
2022/03/31 08:07:08;;;;;;;6.50;5.55;;;4.10;99.90;;;;;;5035952;28;20074;-64
2022/03/31 08:09:34;;;;;;;5.68;4.85;;;4.10;99.90;;;;;;5065753;28;20218;-62
2022/03/31 08:12:00;;;;;;;7.15;6.10;;;4.10;99.90;;;;;;5057769;28;20025;-62
2022/03/31 08:14:26;;;;;;;7.22;5.57;;;4.10;99.90;;;;;;5033999;28;20633;-62
2022/03/31 08:16:52;;;;;;;6.90;6.15;;;4.10;99.90;;;;;;5053642;28;20036;-62
2022/03/31 08:19:19;;;;;;;6.70;5.72;;;4.10;99.90;;;;;;5028606;28;20036;-61
2022/03/31 08:21:46;;;;;;;7.03;5.88;;;4.10;99.90;;;;;;5062800;28;20289;-66
2022/03/31 08:24:13;;;;;;;6.43;5.30;;;4.10;99.90;;;;;;5029625;28;20085;-62
2022/03/31 08:26:43;;;;;;;6.30;5.30;;;4.10;99.90;;;;;;5053354;28;20048;-62
2022/03/31 08:29:10;;;;;;;5.75;5.15;;;4.00;99.90;;;;;;5051810;28;20245;-62
2022/03/31 08:31:36;;;;;;;8.90;5.85;;;4.00;99.90;;;;;;5062016;28;20051;-61
2022/03/31 08:34:05;;;;;;;7.38;5.93;;;4.00;99.90;;;;;;5048697;28;20563;-64
2022/03/31 08:36:31;;;;;;;8.27;6.45;;;4.00;99.90;;;;;;5063546;28;20032;-64
2022/03/31 08:38:57;;;;;;;6.82;6.10;;;4.00;99.90;;;;;;5044555;28;20043;-62
2022/03/31 08:41:25;;;;;;;8.80;6.10;;;4.00;99.90;;;;;;5059136;28;20041;-62
2022/03/31 08:43:51;;;;;;;6.30;5.60;;;3.90;99.90;;;;;;5056904;28;20117;-62
2022/03/31 08:46:18;;;;;;;6.75;5.88;;;3.90;99.90;;;;;;5056009;28;20044;-62
2022/03/31 08:48:44;;;;;;;8.38;6.60;;;3.90;99.90;;;;;;5064811;28;20136;-64
2022/03/31 08:51:10;;;;;;;9.50;6.95;;;3.90;99.90;;;;;;5061397;28;20135;-64
2022/03/31 08:53:36;;;;;;;8.60;6.47;;;3.80;99.90;;;;;;5056699;28;20040;-61
2022/03/31 08:56:03;;;;;;;9.75;7.15;;;3.70;99.90;;;;;;5049481;28;20036;-61
2022/03/31 08:58:29;;;;;;;9.63;7.10;;;3.80;99.90;;;;;;5049323;28;20123;-61
2022/03/31 09:00:55;;;;;;;7.00;6.03;;;3.80;99.90;;;;;;5067003;28;20710;-63
2022/03/31 09:03:31;;;;;;;7.18;6.28;;;3.90;99.90;;;;;;5051622;28;20063;-63
2022/03/31 09:05:57;;;;;;;7.95;6.32;;;3.90;99.90;;;;;;5064668;28;20044;-61
2022/03/31 09:08:23;;;;;;;9.15;7.03;;;3.80;99.90;;;;;;5053507;28;20400;-63
2022/03/31 09:10:57;;;;;;;8.50;6.53;;;3.80;99.90;;;;;;5048652;28;20388;-62
2022/03/31 09:13:25;;;;;;;6.68;5.93;;;3.80;99.90;;;;;;5057240;28;20044;-62
2022/03/31 09:15:57;;;;;;;8.52;6.80;;;3.90;99.90;;;;;;5062616;28;20036;-62
2022/03/31 09:18:25;;;;;;;7.93;5.93;;;3.90;99.90;;;;;;5036302;28;20531;-62
2022/03/31 09:20:54;;;;;;;8.15;5.90;;;3.90;99.90;;;;;;5059961;28;20111;-63
2022/03/31 09:23:21;;;;;;;7.93;5.88;;;3.90;99.90;;;;;;5056127;28;20063;-63
2022/03/31 09:25:50;;;;;;;10.13;6.63;;;3.90;99.90;;;;;;5066209;28;20165;-62
2022/03/31 09:28:21;;;;;;;8.32;6.68;;;3.90;99.90;;;;;;5068242;28;20096;-62
2022/03/31 09:30:55;;;;;;;7.65;6.25;;;3.80;99.90;;;;;;5062597;28;20118;-62
2022/03/31 09:33:35;;;;;;;9.45;7.07;;;3.80;99.90;;;;;;5060803;28;20048;-63
2022/03/31 09:36:06;;;;;;;8.75;6.53;;;3.70;99.90;;;;;;5039136;28;20599;-63
2022/03/31 09:38:35;;;;;;;8.85;6.43;;;3.70;99.90;;;;;;5057142;28;20521;-63
2022/03/31 09:41:03;;;;;;;8.20;6.75;;;3.70;99.90;;;;;;5059033;28;20123;-63
2022/03/31 09:43:40;;;;;;;8.80;7.00;;;3.60;99.90;;;;;;5050750;28;20040;-63
2022/03/31 09:46:16;;;;;;;8.57;7.00;;;3.60;99.90;;;;;;5062342;28;20582;-63
2022/03/31 09:48:43;;;;;;;9.10;7.32;;;3.60;99.90;;;;;;5061492;28;20117;-63
2022/03/31 09:51:09;;;;;;;8.30;6.55;;;3.50;99.90;;;;;;5066693;28;20071;-62
2022/03/31 09:53:35;;;;;;;6.97;5.63;;;3.60;99.90;;;;;;5057508;28;20075;-62
2022/03/31 09:56:01;;;;;;;7.82;6.30;;;3.60;99.90;;;;;;5058966;28;20075;-62
2022/03/31 09:58:27;;;;;;;7.78;5.97;;;3.70;99.90;;;;;;5065784;28;20144;-62
2022/03/31 10:00:54;;;;;;;6.97;5.63;;;3.70;99.90;;;;;;5054216;28;20504;-63
2022/03/31 10:03:21;;;;;;;5.70;4.60;;;3.80;99.90;;;;;;5062494;28;20115;-62
2022/03/31 10:05:48;;;;;;;5.90;5.30;;;3.70;99.90;;;;;;5052550;28;20115;-62
2022/03/31 10:08:14;;;;;;;5.88;4.90;;;3.60;99.90;;;;;;5056243;28;20056;-61
2022/03/31 10:10:40;;;;;;;6.20;4.95;;;3.60;99.90;;;;;;5051804;28;20337;-62
2022/03/31 10:13:24;;;;;;;6.15;4.25;;;3.70;99.90;;;;;;5063559;28;20503;-63
2022/03/31 10:16:06;;;;;;;7.15;5.68;;;3.50;99.90;;;;;;5053908;28;20045;-63
2022/03/31 10:18:31;;;;;;;7.50;5.55;;;3.50;99.90;;;;;;5059030;28;20283;-63
2022/03/31 10:20:59;;;;;;;7.00;5.35;;;3.50;99.90;;;;;;5052180;28;20547;-62
2022/03/31 10:26:27;;;;;;;6.30;5.40;;;3.40;99.90;;;;;;5055005;28;20036;-62
2022/03/31 10:29:14;;;;;;;7.15;5.75;;;3.50;99.90;;;;;;5054193;28;20104;-62
2022/03/31 10:31:49;;;;;;;6.50;5.80;;;3.50;99.90;;;;;;5059120;28;20048;-62
2022/03/31 10:34:15;;;;;;;6.90;5.97;;;3.50;99.90;;;;;;5070232;28;20770;-61
2022/03/31 10:36:45;;;;;;;8.52;6.88;;;3.40;99.90;;;;;;5050115;28;20036;-61
2022/03/31 10:39:24;;;;;;;7.63;6.47;;;3.40;99.90;;;;;;5063070;28;20040;-64
2022/03/31 10:42:05;;;;;;;8.73;7.45;;;3.40;99.90;;;;;;5056906;28;20043;-61
2022/03/31 10:44:31;;;;;;;10.07;8.68;;;3.40;99.90;;;;;;5064749;28;20028;-61
2022/03/31 10:47:03;;;;;;;8.77;6.72;;;3.40;99.90;;;;;;5053296;28;20040;-64
2022/03/31 10:49:30;;;;;;;9.90;8.13;;;3.20;99.90;;;;;;5061587;28;20091;-62
2022/03/31 10:51:57;;;;;;;8.85;7.55;;;3.20;99.90;;;;;;5051210;28;20040;-60
2022/03/31 10:54:24;;;;;;;9.50;8.00;;;3.20;99.90;;;;;;5056386;28;20408;-63
2022/03/31 10:57:06;;;;;;;9.07;7.53;;;3.30;99.90;;;;;;5059340;28;20067;-62
2022/03/31 10:59:32;;;;;;;7.65;6.68;;;3.20;99.90;;;;;;5049747;28;20048;-65
2022/03/31 11:02:07;;;;;;;8.70;7.10;;;3.10;99.90;;;;;;5048480;28;20033;-62
2022/03/31 11:04:42;;;;;;;8.73;6.85;;;3.10;99.90;;;;;;5056625;28;20085;-62
2022/03/31 11:07:17;;;;;;;9.10;7.50;;;3.10;99.90;;;;;;5069776;28;20433;-62
2022/03/31 11:09:45;;;;;;;9.20;8.18;;;3.10;99.90;;;;;;5057411;28;20116;-64
2022/03/31 11:12:41;;;;;;;10.88;9.52;;;3.00;99.90;;;;;;5053958;28;20060;-62
2022/03/31 11:15:11;;;;;;;9.20;7.38;;;3.00;99.90;;;;;;5059602;28;20056;-64
2022/03/31 11:17:39;;;;;;;7.93;6.90;;;3.00;99.90;;;;;;5038205;28;20499;-65
2022/03/31 11:20:16;;;;;;;8.52;6.22;;;3.00;99.90;;;;;;5048582;28;20393;-62
2022/03/31 11:22:50;;;;;;;7.82;6.53;;;2.90;99.90;;;;;;5035419;28;20040;-62
2022/03/31 11:25:17;;;;;;;8.02;6.10;;;2.90;99.90;;;;;;5041814;28;20473;-65
2022/03/31 11:27:44;;;;;;;11.73;6.82;;;2.90;99.90;;;;;;5040140;28;20558;-64
2022/03/31 11:30:15;;;;;;;8.15;6.93;;;2.90;99.90;;;;;;5048903;28;20037;-63
2022/03/31 11:32:42;;;;;;;6.30;5.47;;;2.90;99.90;;;;;;5046558;28;20392;-62
2022/03/31 11:35:19;;;;;;;9.45;6.25;;;2.90;99.90;;;;;;5048170;28;20044;-62
2022/03/31 11:37:54;;;;;;;7.78;5.38;;;2.90;99.90;;;;;;5049214;28;20055;-67
2022/03/31 11:40:25;;;;;;;8.98;6.03;;;2.60;99.90;;;;;;5047428;28;21213;-61
2022/03/31 11:42:54;;;;;;;7.20;5.47;;;2.60;99.90;;;;;;5037531;28;20171;-62
2022/03/31 11:45:33;;;;;;;5.88;4.60;;;2.70;99.90;;;;;;5045733;28;20045;-61
2022/03/31 11:47:59;;;;;;;5.78;4.32;;;2.70;99.90;;;;;;5032539;28;20041;-65
2022/03/31 11:50:26;;;;;;;6.43;4.38;;;2.80;99.90;;;;;;5038879;28;20089;-60
2022/03/31 11:52:52;;;;;;;5.93;4.30;;;2.70;99.90;;;;;;5037919;28;20048;-62
2022/03/31 11:55:21;;;;;;;5.95;4.70;;;2.60;99.90;;;;;;5043097;28;20040;-61
2022/03/31 11:58:07;;;;;;;5.80;4.25;;;2.60;99.90;;;;;;5041973;28;20045;-63
2022/03/31 12:00:33;;;;;;;5.65;4.57;;;2.60;99.90;;;;;;5036905;28;20512;-63
2022/03/31 12:03:05;;;;;;;7.55;4.97;;;2.60;99.90;;;;;;5046686;28;20061;-61
2022/03/31 12:05:31;;;;;;;7.18;5.03;;;2.50;99.90;;;;;;5054192;28;20036;-63
2022/03/31 12:08:00;;;;;;;5.50;4.45;;;2.60;99.90;;;;;;5047407;28;20136;-61
2022/03/31 12:10:27;;;;;;;6.68;4.32;;;2.60;99.90;;;;;;5051031;28;20059;-63
2022/03/31 12:12:55;;;;;;;5.53;4.57;;;2.60;99.90;;;;;;5057657;28;20106;-60
2022/03/31 12:15:26;;;;;;;6.57;4.35;;;2.60;99.90;;;;;;5046652;28;20044;-63
2022/03/31 12:18:18;;;;;;;6.10;4.43;;;2.60;99.90;;;;;;5051200;28;20037;-64
2022/03/31 12:20:49;;;;;;;6.18;4.50;;;2.50;99.90;;;;;;5050205;28;20049;-62
2022/03/31 12:23:23;;;;;;;6.05;4.68;;;2.40;99.90;;;;;;5051954;28;20051;-61
2022/03/31 12:25:50;;;;;;;7.25;4.30;;;2.40;99.90;;;;;;5042464;28;20024;-63
2022/03/31 12:28:20;;;;;;;5.70;4.28;;;2.30;99.90;;;;;;5030431;28;20048;-62
2022/03/31 12:31:03;;;;;;;7.30;4.60;;;2.20;99.90;;;;;;5051864;28;20055;-65
2022/03/31 12:33:36;;;;;;;5.47;4.03;;;2.20;99.90;;;;;;5044865;28;20048;-63
2022/03/31 12:36:07;;;;;;;4.60;3.65;;;2.20;99.90;;;;;;5053693;28;20051;-62
2022/03/31 12:38:51;;;;;;;5.15;3.65;;;2.20;99.90;;;;;;5033428;28;20520;-65
2022/03/31 12:41:29;;;;;;;11.45;3.72;;;2.20;99.90;;;;;;5044856;28;20033;-61
2022/03/31 12:44:31;;;;;;;5.10;3.85;;;2.10;99.90;;;;;;5054706;28;20144;-61
2022/03/31 12:46:59;;;;;;;5.60;3.72;;;2.00;99.90;;;;;;5030128;28;20415;-61
2022/03/31 12:49:31;;;;;;;5.45;3.80;;;1.90;99.90;;;;;;5042614;28;20114;-60
2022/03/31 12:51:59;;;;;;;4.40;3.25;;;1.90;99.90;;;;;;5055678;28;20120;-62
2022/03/31 12:54:30;;;;;;;5.03;3.78;;;2.00;99.90;;;;;;5038096;28;20083;-63
2022/03/31 12:57:01;;;;;;;6.82;3.95;;;1.90;99.90;;;;;;5060559;28;20052;-59
2022/03/31 12:59:33;;;;;;;6.25;3.75;;;1.90;99.90;;;;;;5046798;28;20036;-60
2022/03/31 13:02:10;;;;;;;11.27;4.97;;;1.90;99.90;;;;;;5057130;28;20040;-61
2022/03/31 13:04:41;;;;;;;4.57;3.30;;;1.90;99.90;;;;;;5048139;28;20128;-64
2022/03/31 13:07:11;;;;;;;5.55;3.70;;;1.80;99.90;;;;;;5036637;28;20395;-62
2022/03/31 13:09:37;;;;;;;5.80;4.03;;;1.80;99.90;;;;;;5051452;28;20041;-62
2022/03/31 13:12:09;;;;;;;4.90;3.78;;;1.80;99.90;;;;;;5053966;28;20032;-61
2022/03/31 13:14:36;;;;;;;7.57;4.60;;;1.80;99.90;;;;;;5050319;28;20138;-62